Gerrit Braren — DGYW2 — position and weather

sailwx.info

Track history (hours):
 
Tides and Currents Weather Stations Pressure Air Temp Water Temp Dewpoint Dewpoint Depression Visibility Wind Speed Wind Dir Waves Ship Positions

Gerrit Braren

Last reported at 2017-Nov-12 15:58 UTC. Time now 2017-Nov-22 20:32 UTC.
Position N 27°43' W 015°17'.
Warning: this ship's position is 10 days out of date.

Length 182 m; draft 9.6 m.

Type: Ship. MMSI: 218823000.

Date/timePositionNaut miles runAvg speedWind from/ knotsBaromVisibWave heightAir tempDewpointWater temp
2017-Nov-12 15:58N 27°43' W 015°17'510.7
2017-Nov-12 15:30N 27°46' W 015°13'610.5
2017-Nov-12 14:58N 27°51' W 015°09'510.4
2017-Nov-12 14:30N 27°55' W 015°07'510.3
2017-Nov-12 14:00N 27°60' W 015°05'510.1
2017-Nov-12 13:30N 28°05' W 015°03'510.2
2017-Nov-12 13:00N 28°09' W 015°00'510.2
2017-Nov-12 12:30N 28°14' W 014°58'510.3
2017-Nov-12 12:00N 28°19' W 014°56'510.3
2017-Nov-12 11:30N 28°23' W 014°53'510.3
2017-Nov-12 11:00N 28°28' W 014°51'611.8
2017-Nov-12 10:30N 28°33' W 014°48'612.2
2017-Nov-12 10:00N 28°39' W 014°46'510.6
2017-Nov-12 09:30N 28°44' W 014°43'510.6
2017-Nov-12 09:00N 28°49' W 014°41'510.8
2017-Nov-12 08:30N 28°54' W 014°38'510.5
2017-Nov-12 08:00N 28°59' W 014°36'510.5
2017-Nov-12 07:30N 29°03' W 014°34'510.7
2017-Nov-12 07:00N 29°08' W 014°32'510.6
2017-Nov-12 06:30N 29°13' W 014°29'510.6
2017-Nov-12 06:00N 29°18' W 014°27'510.7
2017-Nov-12 05:30N 29°23' W 014°24'610.9
2017-Nov-12 05:00N 29°28' W 014°22'510.7
2017-Nov-12 04:30N 29°33' W 014°19'510.6
2017-Nov-12 04:00N 29°38' W 014°16'710.5
2017-Nov-12 03:21N 29°44' W 014°13'1310.8
2017-Nov-12 02:08N 29°56' W 014°07'111.1
2017-Nov-12 02:00N 29°57' W 014°06'711.2
2017-Nov-12 01:23N 30°03' W 014°02'6510.6
2017-Nov-11 19:17N 31°02' W 013°32'310.6
2017-Nov-11 19:00N 31°05' W 013°31'510.4
2017-Nov-11 18:29N 31°10' W 013°28'510.2
2017-Nov-11 18:00N 31°15' W 013°26'510.4
2017-Nov-11 17:30N 31°19' W 013°24'2710.7
2017-Nov-11 15:00N 31°44' W 013°11'510.3
2017-Nov-11 14:30N 31°49' W 013°09'8710.8
2017-Nov-11 06:25N 33°08' W 012°26'2310.7
2017-Nov-11 04:16N 33°29' W 012°15'1211.1
2017-Nov-11 03:09N 33°41' W 012°10'28111.2
2017-Nov-10 02:05N 37°57' W 009°47'112.1
2017-Nov-10 01:59N 37°58' W 009°46'612.5
2017-Nov-10 01:30N 38°03' W 009°43'612.6
2017-Nov-10 01:00N 38°09' W 009°40'612.5
2017-Nov-10 00:30N 38°14' W 009°36'612.1
2017-Nov-10 00:00N 38°20' W 009°33'611.5
2017-Nov-09 23:30N 38°25' W 009°30'611.7
2017-Nov-09 23:00N 38°30' W 009°27'612.2
2017-Nov-09 22:30N 38°36' W 009°24'713.3
2017-Nov-09 22:01N 38°41' W 009°18'611.5
2017-Nov-09 21:30N 38°42' W 009°10'0 0.3
2017-Nov-09 20:21N 38°42' W 009°10'0 0.0
2017-Nov-09 18:42N 38°42' W 009°10'0 0.0
2017-Nov-09 12:48N 38°42' W 009°10'0 0.0
2017-Nov-09 09:39N 38°42' W 009°10'0 0.0
2017-Nov-09 09:18N 38°42' W 009°10'0 0.0
2017-Nov-09 08:51N 38°42' W 009°10'0 0.0
2017-Nov-09 08:21N 38°42' W 009°10'0 0.4
2017-Nov-09 08:00N 38°42' W 009°10'3 6.0
2017-Nov-09 07:25N 38°41' W 009°15'3 6.9
2017-Nov-09 07:00N 38°40' W 009°18'612.3
2017-Nov-09 06:30N 38°36' W 009°24'4 7.7
2017-Nov-09 06:01N 38°36' W 009°29'4 8.1
2017-Nov-09 05:30N 38°35' W 009°34'5 9.4
2017-Nov-09 05:01N 38°34' W 009°40'4 8.8
2017-Nov-09 04:31N 38°33' W 009°45'4 8.5
2017-Nov-09 04:00N 38°32' W 009°51'5 9.1
2017-Nov-09 03:30N 38°33' W 009°57'5 9.5
2017-Nov-09 03:01N 38°34' W 010°02'5 9.4
2017-Nov-09 02:30N 38°39' W 010°05'510.5
2017-Nov-09 02:00N 38°44' W 010°06'510.5
2017-Nov-09 01:30N 38°49' W 010°07'510.2
2017-Nov-09 01:00N 38°54' W 010°07'5 9.9
2017-Nov-09 00:30N 38°59' W 010°07'510.2
2017-Nov-09 00:00N 39°04' W 010°07'510.6
2017-Nov-08 23:30N 39°09' W 010°07'510.3
2017-Nov-08 23:00N 39°14' W 010°05'510.3
2017-Nov-08 22:30N 39°19' W 010°01'510.5
2017-Nov-08 22:00N 39°23' W 009°58'10910.8
2017-Nov-08 11:55N 40°59' W 008°50'511.4
2017-Nov-08 11:31N 41°04' W 008°47'713.5
2017-Nov-08 11:00N 41°09' W 008°43'2 4.5
2017-Nov-08 10:28N 41°12' W 008°41'0 0.0
2017-Nov-08 09:58N 41°12' W 008°41'0 0.0
2017-Nov-08 09:28N 41°12' W 008°41'0 0.0
2017-Nov-08 08:58N 41°12' W 008°41'0 0.0
2017-Nov-08 08:28N 41°12' W 008°41'0 0.0
2017-Nov-08 07:58N 41°12' W 008°41'0 0.0
2017-Nov-08 07:28N 41°12' W 008°41'0 0.0
2017-Nov-08 06:58N 41°12' W 008°41'0 0.0
2017-Nov-08 06:28N 41°12' W 008°41'0 0.0
2017-Nov-08 05:58N 41°12' W 008°41'0 0.0
2017-Nov-08 05:25N 41°12' W 008°41'0 0.0
2017-Nov-08 04:58N 41°12' W 008°41'0 0.0
2017-Nov-08 04:28N 41°12' W 008°41'0 0.0
2017-Nov-08 03:58N 41°12' W 008°41'0 0.0
2017-Nov-08 03:28N 41°12' W 008°41'0 0.0
2017-Nov-08 02:58N 41°12' W 008°41'0 0.0
2017-Nov-08 02:28N 41°12' W 008°41'0 0.0
2017-Nov-08 01:58N 41°12' W 008°41'0 0.0
2017-Nov-08 01:28N 41°12' W 008°41'0 0.0
2017-Nov-08 00:58N 41°12' W 008°41'0 0.0
2017-Nov-08 00:28N 41°12' W 008°41'0 0.0
2017-Nov-07 23:58N 41°12' W 008°41'0 0.0
2017-Nov-07 23:28N 41°12' W 008°41'0 0.0
2017-Nov-07 22:58N 41°12' W 008°41'0 0.0
2017-Nov-07 22:30N 41°12' W 008°41'1 1.5
2017-Nov-07 22:00N 41°11' W 008°42'3 6.1
2017-Nov-07 21:30N 41°08' W 008°43'612.0
2017-Nov-07 21:00N 41°03' W 008°47'10112.7
2017-Nov-07 13:01N 39°31' W 009°43'112.3
2017-Nov-07 12:55N 39°30' W 009°43'512.0
2017-Nov-07 12:30N 39°25' W 009°44'611.8
2017-Nov-07 12:00N 39°20' W 009°42'611.2
2017-Nov-07 11:30N 39°14' W 009°42'612.0
2017-Nov-07 11:00N 39°08' W 009°44'611.7
2017-Nov-07 10:30N 39°03' W 009°47'611.9
2017-Nov-07 10:00N 38°57' W 009°49'611.5
2017-Nov-07 09:30N 38°52' W 009°52'611.5
2017-Nov-07 09:00N 38°46' W 009°51'611.4
2017-Nov-07 08:30N 38°40' W 009°50'611.5
2017-Nov-07 08:00N 38°35' W 009°48'611.8
2017-Nov-07 07:30N 38°29' W 009°47'611.5
2017-Nov-07 07:00N 38°23' W 009°45'611.5
2017-Nov-07 06:30N 38°18' W 009°44'611.7
2017-Nov-07 05:59N 38°12' W 009°42'612.0
2017-Nov-07 05:28N 38°06' W 009°40'612.2
2017-Nov-07 04:59N 37°60' W 009°39'612.3
2017-Nov-07 04:27N 37°54' W 009°37'612.5
2017-Nov-07 03:58N 37°48' W 009°35'612.7
2017-Nov-07 03:29N 37°42' W 009°33'812.7
2017-Nov-07 02:52N 37°34' W 009°31'412.2
2017-Nov-07 02:30N 37°30' W 009°30'611.8
2017-Nov-07 01:59N 37°24' W 009°28'214 5.5
2017-Nov-05 11:10N 36°05' W 005°20'7 0.2
2017-Nov-03 23:47N 35°60' W 005°26'2 6.1
2017-Nov-03 23:30N 36°00' W 005°24'  
Track history (hours):
 
Tides and Currents Weather Stations Pressure Air Temp Water Temp Dewpoint Dewpoint Depression Visibility Wind Speed Wind Dir Waves Ship Positions

Gerrit Braren

Last reported at 2017-Nov-12 15:58 UTC. Time now 2017-Nov-22 20:32 UTC.
Position N 27°43' W 015°17'.
Warning: this ship's position is 10 days out of date.

Length 182 m; draft 9.6 m.

Type: Ship. MMSI: 218823000.

Date/timePositionNaut miles runAvg speedWind from/ knotsBaromVisibWave heightAir tempDewpointWater temp
2017-Nov-12 15:58N 27°43' W 015°17'510.7
2017-Nov-12 15:30N 27°46' W 015°13'610.5
2017-Nov-12 14:58N 27°51' W 015°09'510.4
2017-Nov-12 14:30N 27°55' W 015°07'510.3
2017-Nov-12 14:00N 27°60' W 015°05'510.1
2017-Nov-12 13:30N 28°05' W 015°03'510.2
2017-Nov-12 13:00N 28°09' W 015°00'510.2
2017-Nov-12 12:30N 28°14' W 014°58'510.3
2017-Nov-12 12:00N 28°19' W 014°56'510.3
2017-Nov-12 11:30N 28°23' W 014°53'510.3
2017-Nov-12 11:00N 28°28' W 014°51'611.8
2017-Nov-12 10:30N 28°33' W 014°48'612.2
2017-Nov-12 10:00N 28°39' W 014°46'510.6
2017-Nov-12 09:30N 28°44' W 014°43'510.6
2017-Nov-12 09:00N 28°49' W 014°41'510.8
2017-Nov-12 08:30N 28°54' W 014°38'510.5
2017-Nov-12 08:00N 28°59' W 014°36'510.5
2017-Nov-12 07:30N 29°03' W 014°34'510.7
2017-Nov-12 07:00N 29°08' W 014°32'510.6
2017-Nov-12 06:30N 29°13' W 014°29'510.6
2017-Nov-12 06:00N 29°18' W 014°27'510.7
2017-Nov-12 05:30N 29°23' W 014°24'610.9
2017-Nov-12 05:00N 29°28' W 014°22'510.7
2017-Nov-12 04:30N 29°33' W 014°19'510.6
2017-Nov-12 04:00N 29°38' W 014°16'710.5
2017-Nov-12 03:21N 29°44' W 014°13'1310.8
2017-Nov-12 02:08N 29°56' W 014°07'111.1
2017-Nov-12 02:00N 29°57' W 014°06'711.2
2017-Nov-12 01:23N 30°03' W 014°02'6510.6
2017-Nov-11 19:17N 31°02' W 013°32'310.6
2017-Nov-11 19:00N 31°05' W 013°31'510.4
2017-Nov-11 18:29N 31°10' W 013°28'510.2
2017-Nov-11 18:00N 31°15' W 013°26'510.4
2017-Nov-11 17:30N 31°19' W 013°24'2710.7
2017-Nov-11 15:00N 31°44' W 013°11'510.3
2017-Nov-11 14:30N 31°49' W 013°09'8710.8
2017-Nov-11 06:25N 33°08' W 012°26'2310.7
2017-Nov-11 04:16N 33°29' W 012°15'1211.1
2017-Nov-11 03:09N 33°41' W 012°10'28111.2
2017-Nov-10 02:05N 37°57' W 009°47'112.1
2017-Nov-10 01:59N 37°58' W 009°46'612.5
2017-Nov-10 01:30N 38°03' W 009°43'612.6
2017-Nov-10 01:00N 38°09' W 009°40'612.5
2017-Nov-10 00:30N 38°14' W 009°36'612.1
2017-Nov-10 00:00N 38°20' W 009°33'611.5
2017-Nov-09 23:30N 38°25' W 009°30'611.7
2017-Nov-09 23:00N 38°30' W 009°27'612.2
2017-Nov-09 22:30N 38°36' W 009°24'713.3
2017-Nov-09 22:01N 38°41' W 009°18'611.5
2017-Nov-09 21:30N 38°42' W 009°10'0 0.3
2017-Nov-09 20:21N 38°42' W 009°10'0 0.0
2017-Nov-09 18:42N 38°42' W 009°10'0 0.0
2017-Nov-09 12:48N 38°42' W 009°10'0 0.0
2017-Nov-09 09:39N 38°42' W 009°10'0 0.0
2017-Nov-09 09:18N 38°42' W 009°10'0 0.0
2017-Nov-09 08:51N 38°42' W 009°10'0 0.0
2017-Nov-09 08:21N 38°42' W 009°10'0 0.4
2017-Nov-09 08:00N 38°42' W 009°10'3 6.0
2017-Nov-09 07:25N 38°41' W 009°15'3 6.9
2017-Nov-09 07:00N 38°40' W 009°18'612.3
2017-Nov-09 06:30N 38°36' W 009°24'4 7.7
2017-Nov-09 06:01N 38°36' W 009°29'4 8.1
2017-Nov-09 05:30N 38°35' W 009°34'5 9.4
2017-Nov-09 05:01N 38°34' W 009°40'4 8.8
2017-Nov-09 04:31N 38°33' W 009°45'4 8.5
2017-Nov-09 04:00N 38°32' W 009°51'5 9.1
2017-Nov-09 03:30N 38°33' W 009°57'5 9.5
2017-Nov-09 03:01N 38°34' W 010°02'5 9.4
2017-Nov-09 02:30N 38°39' W 010°05'510.5
2017-Nov-09 02:00N 38°44' W 010°06'510.5
2017-Nov-09 01:30N 38°49' W 010°07'510.2
2017-Nov-09 01:00N 38°54' W 010°07'5 9.9
2017-Nov-09 00:30N 38°59' W 010°07'510.2
2017-Nov-09 00:00N 39°04' W 010°07'510.6
2017-Nov-08 23:30N 39°09' W 010°07'510.3
2017-Nov-08 23:00N 39°14' W 010°05'510.3
2017-Nov-08 22:30N 39°19' W 010°01'510.5
2017-Nov-08 22:00N 39°23' W 009°58'10910.8
2017-Nov-08 11:55N 40°59' W 008°50'511.4
2017-Nov-08 11:31N 41°04' W 008°47'713.5
2017-Nov-08 11:00N 41°09' W 008°43'2 4.5
2017-Nov-08 10:28N 41°12' W 008°41'0 0.0
2017-Nov-08 09:58N 41°12' W 008°41'0 0.0
2017-Nov-08 09:28N 41°12' W 008°41'0 0.0
2017-Nov-08 08:58N 41°12' W 008°41'0 0.0
2017-Nov-08 08:28N 41°12' W 008°41'0 0.0
2017-Nov-08 07:58N 41°12' W 008°41'0 0.0
2017-Nov-08 07:28N 41°12' W 008°41'0 0.0
2017-Nov-08 06:58N 41°12' W 008°41'0 0.0
2017-Nov-08 06:28N 41°12' W 008°41'0 0.0
2017-Nov-08 05:58N 41°12' W 008°41'0 0.0
2017-Nov-08 05:25N 41°12' W 008°41'0 0.0
2017-Nov-08 04:58N 41°12' W 008°41'0 0.0
2017-Nov-08 04:28N 41°12' W 008°41'0 0.0
2017-Nov-08 03:58N 41°12' W 008°41'0 0.0
2017-Nov-08 03:28N 41°12' W 008°41'0 0.0
2017-Nov-08 02:58N 41°12' W 008°41'0 0.0
2017-Nov-08 02:28N 41°12' W 008°41'0 0.0
2017-Nov-08 01:58N 41°12' W 008°41'0 0.0
2017-Nov-08 01:28N 41°12' W 008°41'0 0.0
2017-Nov-08 00:58N 41°12' W 008°41'0 0.0
2017-Nov-08 00:28N 41°12' W 008°41'0 0.0
2017-Nov-07 23:58N 41°12' W 008°41'0 0.0
2017-Nov-07 23:28N 41°12' W 008°41'0 0.0
2017-Nov-07 22:58N 41°12' W 008°41'0 0.0
2017-Nov-07 22:30N 41°12' W 008°41'1 1.5
2017-Nov-07 22:00N 41°11' W 008°42'3 6.1
2017-Nov-07 21:30N 41°08' W 008°43'612.0
2017-Nov-07 21:00N 41°03' W 008°47'10112.7
2017-Nov-07 13:01N 39°31' W 009°43'112.3
2017-Nov-07 12:55N 39°30' W 009°43'512.0
2017-Nov-07 12:30N 39°25' W 009°44'611.8
2017-Nov-07 12:00N 39°20' W 009°42'611.2
2017-Nov-07 11:30N 39°14' W 009°42'612.0
2017-Nov-07 11:00N 39°08' W 009°44'611.7
2017-Nov-07 10:30N 39°03' W 009°47'611.9
2017-Nov-07 10:00N 38°57' W 009°49'611.5
2017-Nov-07 09:30N 38°52' W 009°52'611.5
2017-Nov-07 09:00N 38°46' W 009°51'611.4
2017-Nov-07 08:30N 38°40' W 009°50'611.5
2017-Nov-07 08:00N 38°35' W 009°48'611.8
2017-Nov-07 07:30N 38°29' W 009°47'611.5
2017-Nov-07 07:00N 38°23' W 009°45'611.5
2017-Nov-07 06:30N 38°18' W 009°44'611.7
2017-Nov-07 05:59N 38°12' W 009°42'612.0
2017-Nov-07 05:28N 38°06' W 009°40'612.2
2017-Nov-07 04:59N 37°60' W 009°39'612.3
2017-Nov-07 04:27N 37°54' W 009°37'612.5
2017-Nov-07 03:58N 37°48' W 009°35'612.7
2017-Nov-07 03:29N 37°42' W 009°33'812.7
2017-Nov-07 02:52N 37°34' W 009°31'412.2
2017-Nov-07 02:30N 37°30' W 009°30'611.8
2017-Nov-07 01:59N 37°24' W 009°28'214 5.5
2017-Nov-05 11:10N 36°05' W 005°20'7 0.2
2017-Nov-03 23:47N 35°60' W 005°26'2 6.1
2017-Nov-03 23:30N 36°00' W 005°24'  

Dump ship's entire track history